Time;durP1;ratioP1;P1;durP2;ratioP2;P2;SDS_P1;SDS_P2;PMS_P1;PMS_P2;Temp;Humidity;BMP_temperature;BMP_pressure;BME280_temperature;BME280_humidity;BME280_pressure;Samples;Min_cycle;Max_cycle;Signal;HPM_P1;HPM_P2
2022/03/25 00:00:01;;;;;;;33.05;22.17;;;7.40;58.90;;;6.42;50.58;98243.84;4994637;28;20402;-74
2022/03/25 00:02:27;;;;;;;39.67;23.15;;;7.50;59.40;;;6.41;50.67;98244.84;4994175;28;20411;-74
2022/03/25 00:04:53;;;;;;;35.28;23.02;;;7.40;59.60;;;6.40;50.78;98245.84;4994617;28;20410;-75
2022/03/25 00:07:18;;;;;;;38.75;23.10;;;7.40;59.60;;;6.35;50.83;98248.28;4994476;28;20422;-74
2022/03/25 00:09:44;;;;;;;33.92;20.60;;;7.40;59.60;;;6.24;50.79;98249.69;4994408;28;20908;-74
2022/03/25 00:12:12;;;;;;;35.13;21.70;;;7.40;59.40;;;6.26;50.62;98249.50;4994034;28;20521;-74
2022/03/25 00:14:37;;;;;;;41.88;21.42;;;7.30;59.50;;;6.20;51.17;98251.13;4994596;28;20878;-74
2022/03/25 00:17:04;;;;;;;33.97;21.55;;;7.30;59.90;;;6.19;51.17;98245.03;4994239;28;20441;-74
2022/03/25 00:19:30;;;;;;;34.87;21.40;;;7.30;59.80;;;6.15;51.29;98243.03;4994287;28;20919;-74
2022/03/25 00:21:56;;;;;;;37.92;22.58;;;7.30;60.10;;;6.22;50.38;98238.59;4994010;28;20476;-74
2022/03/25 00:24:24;;;;;;;35.80;21.38;;;7.30;59.60;;;6.18;51.02;98248.69;4994116;28;20410;-74
2022/03/25 00:26:50;;;;;;;37.05;22.48;;;7.20;59.80;;;6.25;50.51;98242.63;4994004;28;20458;-74
2022/03/25 00:29:17;;;;;;;39.63;23.55;;;7.30;59.90;;;6.25;50.20;98237.34;4994218;28;20406;-74
2022/03/25 00:31:43;;;;;;;36.28;20.80;;;7.30;59.50;;;6.12;50.60;98241.59;4993880;28;20410;-73
2022/03/25 00:34:09;;;;;;;27.23;18.55;;;7.20;59.50;;;6.05;50.89;98229.47;4994095;28;20826;-74
2022/03/25 00:36:35;;;;;;;35.70;21.80;;;7.20;59.70;;;6.07;51.79;98233.53;4999328;28;20480;-74
2022/03/25 00:39:01;;;;;;;31.45;20.17;;;7.20;60.60;;;5.94;51.46;98232.72;5000406;28;20953;-74
2022/03/25 00:41:27;;;;;;;35.70;20.90;;;7.10;60.30;;;5.95;51.64;98229.84;4995257;28;20417;-74
2022/03/25 00:43:53;;;;;;;37.20;22.23;;;7.10;60.70;;;5.97;51.89;98234.94;4992797;28;20420;-74
2022/03/25 00:46:21;;;;;;;29.50;19.47;;;7.10;61.20;;;5.82;52.12;98230.63;4993711;28;21066;-74
2022/03/25 00:48:47;;;;;;;32.97;20.73;;;7.00;61.50;;;5.85;51.80;98224.19;4992538;28;20414;-74
2022/03/25 00:51:13;;;;;;;37.70;21.15;;;7.00;61.20;;;5.82;51.76;98217.50;4992147;28;20421;-74
2022/03/25 00:53:39;;;;;;;38.53;22.27;;;7.00;61.10;;;5.81;51.52;98221.13;4993313;28;20497;-74
2022/03/25 00:56:05;;;;;;;34.42;20.17;;;7.00;60.80;;;5.73;51.76;98223.13;4992822;28;20912;-73
2022/03/25 00:58:32;;;;;;;35.80;21.27;;;6.90;60.80;;;5.76;51.76;98220.13;4993591;28;20406;-74
2022/03/25 01:00:59;;;;;;;38.33;21.85;;;6.90;61.20;;;5.75;52.53;98210.63;4991789;28;20426;-74
2022/03/25 01:03:26;;;;;;;39.78;23.80;;;6.90;61.70;;;5.80;52.44;98216.88;4993313;28;20501;-74
2022/03/25 01:05:52;;;;;;;35.55;21.35;;;6.80;62.10;;;5.64;52.58;98211.22;4993540;28;20406;-74
2022/03/25 01:08:18;;;;;;;34.90;21.38;;;6.80;61.90;;;5.65;52.50;98218.06;4993236;28;21003;-73
2022/03/25 01:10:50;;;;;;;34.25;21.92;;;6.80;62.20;;;5.65;53.21;98215.44;4992903;28;20402;-75
2022/03/25 01:13:16;;;;;;;36.67;22.92;;;6.80;62.90;;;5.62;53.19;98218.47;4993375;28;20407;-75
2022/03/25 01:15:42;;;;;;;34.50;21.30;;;6.70;62.90;;;5.52;53.20;98210.97;4993218;28;20883;-75
2022/03/25 01:18:08;;;;;;;39.20;22.83;;;6.70;62.80;;;5.53;52.96;98219.66;4993066;28;20421;-74
2022/03/25 01:20:36;;;;;;;35.10;20.20;;;6.70;62.80;;;5.49;53.13;98210.56;4991463;28;20406;-75
2022/03/25 01:23:02;;;;;;;36.60;22.90;;;6.60;62.80;;;5.59;52.77;98208.34;4993121;28;20428;-75
2022/03/25 01:25:28;;;;;;;38.03;23.10;;;6.60;63.10;;;5.53;52.85;98206.53;4991835;28;20877;-75
2022/03/25 01:27:56;;;;;;;40.30;22.85;;;6.60;63.50;;;5.51;53.28;98208.53;4992822;28;20569;-75
2022/03/25 01:30:22;;;;;;;36.58;22.27;;;6.60;63.10;;;5.45;53.35;98216.22;4992473;28;20873;-75
2022/03/25 01:32:48;;;;;;;32.58;21.20;;;6.60;63.20;;;5.43;53.84;98212.16;4992958;28;20410;-75
2022/03/25 01:35:14;;;;;;;35.05;20.88;;;6.50;63.50;;;5.38;53.48;98214.56;4992932;28;20799;-74
2022/03/25 01:37:42;;;;;;;34.88;20.92;;;6.50;63.50;;;5.27;53.42;98213.31;4992804;28;20406;-75
2022/03/25 01:40:09;;;;;;;31.88;20.15;;;6.50;63.50;;;5.23;53.72;98221.78;4992500;28;20411;-75
2022/03/25 01:42:39;;;;;;;34.97;22.75;;;6.40;63.50;;;5.23;53.40;98219.97;4992739;28;20495;-74
2022/03/25 01:45:06;;;;;;;37.05;21.73;;;6.40;63.60;;;5.25;53.57;98209.28;4992677;28;20409;-75
2022/03/25 01:47:35;;;;;;;35.37;21.70;;;6.40;63.80;;;5.21;53.66;98214.09;4992497;28;20904;-74
2022/03/25 01:50:02;;;;;;;37.72;21.55;;;6.40;63.50;;;5.21;54.03;98213.28;4992516;28;20442;-74
2022/03/25 01:52:29;;;;;;;35.97;22.42;;;6.40;63.90;;;5.28;53.96;98219.38;4992242;28;20411;-75
2022/03/25 01:55:14;;;;;;;36.83;22.63;;;6.40;64.40;;;5.24;54.30;98215.53;4992474;28;20884;-74
2022/03/25 01:57:40;;;;;;;34.33;21.65;;;6.30;64.90;;;5.18;53.88;98217.13;4992474;28;20405;-74
2022/03/25 02:00:08;;;;;;;38.15;23.65;;;6.30;64.30;;;5.19;54.23;98213.47;4992128;28;20410;-74
2022/03/25 02:02:37;;;;;;;36.30;22.58;;;6.30;64.70;;;5.12;54.58;98212.66;4990971;28;20417;-74
2022/03/25 02:05:03;;;;;;;39.00;23.92;;;6.20;64.70;;;5.16;54.17;98216.50;4992181;28;20449;-75
2022/03/25 02:07:29;;;;;;;37.35;24.08;;;6.30;64.70;;;5.12;54.37;98224.97;4991890;28;20844;-74
2022/03/25 02:09:56;;;;;;;39.50;23.63;;;6.30;64.90;;;5.03;54.63;98219.91;4992230;28;20490;-74
2022/03/25 02:12:22;;;;;;;36.30;22.55;;;6.20;65.30;;;5.02;54.50;98218.28;4991916;28;20442;-74
2022/03/25 02:14:49;;;;;;;39.15;22.08;;;6.10;65.20;;;4.97;54.28;98220.66;4992084;28;20877;-74
2022/03/25 02:17:17;;;;;;;33.42;19.85;;;6.10;64.80;;;4.87;54.41;98222.84;4991373;28;21343;-74
2022/03/25 02:19:47;;;;;;;38.70;23.08;;;6.10;64.90;;;4.95;54.84;98219.25;4991869;28;20414;-75
2022/03/25 02:22:15;;;;;;;37.63;22.88;;;6.00;65.60;;;4.86;55.45;98226.47;4991704;28;20461;-74
2022/03/25 02:24:41;;;;;;;42.25;23.67;;;6.00;66.00;;;4.89;55.50;98227.88;4990629;28;20418;-75
2022/03/25 02:27:07;;;;;;;34.30;21.48;;;6.00;66.30;;;4.79;55.31;98222.19;4990488;28;20473;-75
2022/03/25 02:29:38;;;;;;;36.05;23.52;;;5.90;66.00;;;4.83;55.16;98226.03;4991820;28;20406;-75
2022/03/25 02:32:05;;;;;;;38.50;23.90;;;5.90;66.10;;;4.79;55.37;98220.38;4991476;28;20904;-75
2022/03/25 02:34:31;;;;;;;36.50;22.92;;;5.90;66.50;;;4.70;55.28;98225.97;4991800;28;20849;-73
2022/03/25 02:36:57;;;;;;;39.17;23.55;;;5.90;66.20;;;4.79;55.32;98222.19;4991736;28;20408;-74
2022/03/25 02:39:24;;;;;;;37.90;24.38;;;5.90;66.30;;;4.73;56.18;98209.84;4991666;28;20406;-75
2022/03/25 02:41:51;;;;;;;34.05;22.00;;;5.80;66.90;;;4.57;55.60;98224.09;4991337;28;20489;-74
2022/03/25 02:44:16;;;;;;;34.00;22.10;;;5.80;66.70;;;4.60;56.05;98216.63;4991642;28;20602;-75
2022/03/25 02:46:42;;;;;;;40.97;24.63;;;5.70;66.90;;;4.61;56.26;98214.81;4991590;28;20924;-75
2022/03/25 02:49:09;;;;;;;36.35;22.50;;;5.80;67.50;;;4.48;56.45;98217.34;4991458;28;20447;-73
2022/03/25 02:51:35;;;;;;;40.00;24.67;;;5.70;67.50;;;4.57;56.49;98219.66;4991146;28;20549;-75
2022/03/25 02:54:01;;;;;;;36.72;24.05;;;5.70;68.00;;;4.49;56.71;98224.22;4991579;28;20753;-74
2022/03/25 02:56:28;;;;;;;37.83;25.33;;;5.70;68.00;;;4.49;56.48;98221.59;4991472;28;20409;-74
2022/03/25 02:58:54;;;;;;;40.75;25.50;;;5.60;67.90;;;4.44;56.17;98222.16;4991296;28;20438;-74
2022/03/25 03:01:21;;;;;;;38.33;24.20;;;5.60;67.60;;;4.49;56.40;98224.22;4991022;28;20442;-74
2022/03/25 03:03:47;;;;;;;40.30;24.83;;;5.60;67.70;;;4.49;56.28;98219.78;4991278;28;20764;-73
2022/03/25 03:06:14;;;;;;;40.55;24.33;;;5.60;67.90;;;4.42;56.22;98224.19;4997740;28;20410;-74
2022/03/25 03:08:41;;;;;;;44.10;25.40;;;5.60;67.70;;;4.43;56.57;98222.38;5000706;28;20418;-74
2022/03/25 03:11:08;;;;;;;38.85;24.98;;;5.50;68.10;;;4.38;56.66;98220.31;4996915;28;20410;-74
2022/03/25 03:13:35;;;;;;;42.03;26.00;;;5.50;68.20;;;4.38;57.07;98222.94;4991354;28;20414;-74
2022/03/25 03:16:01;;;;;;;38.10;24.85;;;5.50;68.50;;;4.39;56.93;98227.19;4991525;28;20418;-75
2022/03/25 03:18:27;;;;;;;37.17;22.97;;;5.50;68.80;;;4.25;57.26;98223.66;4990595;28;20403;-75
2022/03/25 03:20:53;;;;;;;39.00;24.45;;;5.40;68.70;;;4.21;56.86;98227.63;4990659;28;20769;-74
2022/03/25 03:23:19;;;;;;;43.60;25.05;;;5.40;68.50;;;4.21;57.14;98217.16;4990100;28;20419;-75
2022/03/25 03:25:46;;;;;;;38.47;24.45;;;5.40;68.70;;;4.13;57.21;98219.94;4991202;28;20411;-72
2022/03/25 03:28:11;;;;;;;45.78;25.67;;;5.40;68.70;;;4.23;57.34;98223.03;5015456;23;20780;-76
2022/03/25 03:30:39;;;;;;;42.43;26.17;;;5.40;69.10;;;4.20;57.68;98214.75;5004830;28;20476;-76
2022/03/25 03:33:05;;;;;;;37.15;24.30;;;5.30;69.30;;;4.11;57.74;98210.63;5010519;28;20428;-76
2022/03/25 03:35:34;;;;;;;36.00;23.92;;;5.30;69.30;;;4.01;57.49;98221.44;5010447;28;20407;-77
2022/03/25 03:38:01;;;;;;;42.00;25.97;;;5.20;69.30;;;4.07;58.13;98217.25;5010661;28;20479;-76
2022/03/25 03:40:27;;;;;;;44.40;26.33;;;5.20;70.20;;;4.02;58.01;98217.00;5009677;28;20510;-77
2022/03/25 03:42:53;;;;;;;36.13;23.67;;;5.20;70.20;;;3.89;58.05;98218.53;5010317;28;20397;-75
2022/03/25 03:45:19;;;;;;;42.28;25.50;;;5.10;70.20;;;3.89;58.12;98217.72;5009944;28;20411;-77
2022/03/25 03:47:47;;;;;;;44.70;27.45;;;5.10;70.30;;;3.94;58.88;98217.94;5010306;28;20409;-77
2022/03/25 03:50:16;;;;;;;35.97;24.25;;;5.10;70.70;;;3.85;58.45;98212.03;5010011;28;20439;-77
2022/03/25 03:52:43;;;;;;;37.45;23.75;;;5.10;71.70;;;3.90;58.40;98214.09;5010429;28;20408;-76
2022/03/25 03:55:11;;;;;;;39.20;25.13;;;5.10;70.80;;;3.84;58.77;98213.03;5009170;28;20408;-77
2022/03/25 03:57:37;;;;;;;41.90;25.15;;;5.00;70.80;;;3.79;58.64;98209.34;5008979;28;20409;-77
2022/03/25 04:00:05;;;;;;;37.53;23.88;;;5.00;70.80;;;3.75;58.59;98208.13;5010224;28;21047;-77
2022/03/25 04:02:31;;;;;;;40.97;23.92;;;5.00;70.80;;;3.75;58.92;98208.13;5010141;28;20479;-77
2022/03/25 04:05:04;;;;;;;39.58;24.52;;;4.90;71.10;;;3.72;58.56;98203.25;5010565;28;20411;-78
2022/03/25 04:07:31;;;;;;;36.45;23.42;;;4.90;71.10;;;3.64;58.71;98203.38;5008659;28;20474;-76
2022/03/25 04:09:56;;;;;;;37.10;24.73;;;4.90;71.10;;;3.67;59.11;98200.38;5008971;28;20437;-77
2022/03/25 04:12:22;;;;;;;40.25;25.35;;;4.90;71.50;;;3.63;59.17;98197.31;5009948;28;20484;-77
2022/03/25 04:14:48;;;;;;;45.13;27.40;;;4.90;71.70;;;3.71;59.20;98206.84;5010152;28;20424;-75
2022/03/25 04:17:14;;;;;;;40.13;25.65;;;4.90;71.90;;;3.67;59.26;98201.19;5010068;28;20948;-77
2022/03/25 04:19:40;;;;;;;42.78;27.15;;;4.90;71.80;;;3.68;59.67;98194.16;5010192;28;20417;-77
2022/03/25 04:22:08;;;;;;;41.60;27.07;;;4.90;72.10;;;3.66;59.75;98194.34;5009888;28;20571;-77
2022/03/25 04:24:34;;;;;;;41.70;25.55;;;4.80;72.30;;;3.59;59.57;98197.88;5010318;28;20467;-78
2022/03/25 04:26:59;;;;;;;41.00;26.20;;;4.80;72.10;;;3.63;59.31;98194.69;5009825;28;20421;-77
2022/03/25 04:29:25;;;;;;;44.45;28.38;;;4.80;72.10;;;3.66;59.50;98196.16;5011916;28;20400;-77
2022/03/25 04:31:51;;;;;;;44.90;26.67;;;4.80;72.30;;;3.60;59.88;98195.09;5013335;28;20513;-77
2022/03/25 04:34:17;;;;;;;40.50;27.37;;;4.80;72.50;;;3.60;60.10;98199.50;5013782;28;20471;-77
2022/03/25 04:36:43;;;;;;;37.90;23.95;;;4.80;73.00;;;3.50;59.94;98191.97;5013568;28;20412;-77
2022/03/25 04:39:11;;;;;;;35.97;21.15;;;4.70;72.70;;;3.40;60.00;98197.50;5013543;28;20424;-77
2022/03/25 04:41:37;;;;;;;39.97;24.17;;;4.60;72.70;;;3.39;60.34;98201.09;5013094;28;20463;-77
2022/03/25 04:44:03;;;;;;;38.47;24.63;;;4.60;73.10;;;3.38;60.53;98204.72;5012399;28;20413;-76
2022/03/25 04:46:29;;;;;;;43.88;27.15;;;4.60;73.30;;;3.46;60.16;98201.97;5013347;28;20412;-76
2022/03/25 04:48:55;;;;;;;43.43;27.27;;;4.60;73.30;;;3.48;60.40;98199.19;5013321;28;20469;-76
2022/03/25 04:51:21;;;;;;;44.08;27.30;;;4.60;73.30;;;3.42;60.29;98203.34;5014167;28;20439;-77
2022/03/25 04:53:48;;;;;;;42.85;27.08;;;4.60;73.40;;;3.40;60.78;98204.53;5011211;28;20446;-77
2022/03/25 04:56:15;;;;;;;38.55;24.63;;;4.60;73.60;;;3.28;61.11;98204.22;5004951;28;20792;-76
2022/03/25 04:58:41;;;;;;;39.22;24.98;;;4.50;73.60;;;3.24;60.81;98207.38;4998399;28;20422;-76
2022/03/25 05:01:07;;;;;;;44.17;27.50;;;4.50;73.70;;;3.33;60.87;98211.50;4991519;28;20895;-81
2022/03/25 05:03:33;;;;;;;49.47;27.75;;;4.50;74.10;;;3.36;60.88;98205.91;4993498;28;20489;-78
2022/03/25 05:05:59;;;;;;;44.47;27.57;;;4.50;74.20;;;3.33;60.60;98214.94;4993705;28;20492;-77
2022/03/25 05:08:24;;;;;;;37.40;24.75;;;4.50;74.00;;;3.18;60.46;98205.50;4993361;28;20422;-76
2022/03/25 05:10:51;;;;;;;41.15;25.05;;;4.40;73.90;;;3.14;60.83;98212.09;4993053;28;20407;-76
2022/03/25 05:13:18;;;;;;;41.17;25.80;;;4.40;74.20;;;3.18;61.33;98214.16;4993723;28;20439;-76
2022/03/25 05:15:45;;;;;;;41.30;27.05;;;4.40;74.60;;;3.15;61.46;98214.53;4993748;28;20407;-74
2022/03/25 05:18:11;;;;;;;40.38;26.35;;;4.40;74.70;;;3.13;61.74;98218.31;4992712;28;20407;-75
2022/03/25 05:20:37;;;;;;;41.90;27.42;;;4.30;74.80;;;3.14;61.22;98217.31;4996328;28;20451;-72
2022/03/25 05:23:03;;;;;;;42.67;26.02;;;4.30;74.80;;;3.08;60.86;98217.03;5002902;28;20811;-74
2022/03/25 05:25:29;;;;;;;39.90;27.10;;;4.30;74.50;;;3.12;61.23;98220.13;5000073;28;20461;-74
2022/03/25 05:27:58;;;;;;;39.55;26.40;;;4.30;74.70;;;3.06;61.16;98213.81;4992808;28;20425;-74
2022/03/25 05:30:27;;;;;;;36.63;25.30;;;4.30;74.50;;;3.01;61.02;98212.72;4992869;28;20430;-80
2022/03/25 05:32:54;;;;;;;34.72;23.60;;;4.30;74.60;;;2.99;61.40;98207.69;4993383;28;20421;-79
2022/03/25 05:35:23;;;;;;;34.60;22.80;;;4.30;74.70;;;3.00;61.34;98217.19;4992219;28;20410;-78
2022/03/25 05:37:50;;;;;;;41.35;25.73;;;4.20;74.60;;;3.07;61.29;98212.84;4993188;28;20453;-76
2022/03/25 05:40:18;;;;;;;42.42;26.10;;;4.30;74.70;;;3.14;61.15;98212.91;4991912;28;20533;-77
2022/03/25 05:42:44;;;;;;;41.40;27.88;;;4.30;74.60;;;3.16;61.56;98216.13;4993872;28;20976;-78
2022/03/25 05:45:10;;;;;;;41.58;28.20;;;4.30;75.10;;;3.16;61.42;98217.97;4993714;28;20411;-77
2022/03/25 05:47:40;;;;;;;41.42;26.30;;;4.30;75.30;;;3.06;61.40;98221.66;4992597;28;20522;-77
2022/03/25 05:50:11;;;;;;;40.22;26.90;;;4.30;75.20;;;3.13;61.51;98219.13;4992574;28;20497;-77
2022/03/25 05:52:38;;;;;;;43.55;28.70;;;4.30;75.40;;;3.13;61.47;98223.56;4992692;28;20399;-80
2022/03/25 05:55:05;;;;;;;40.83;26.35;;;4.30;75.30;;;3.14;61.91;98223.38;5003659;28;20970;-75
2022/03/25 05:57:31;;;;;;;40.58;27.13;;;4.40;75.50;;;3.19;61.70;98223.63;4993662;28;20421;-76
2022/03/25 05:59:59;;;;;;;42.28;26.52;;;4.40;75.70;;;3.21;61.97;98220.84;4992387;28;20800;-75
2022/03/25 06:02:25;;;;;;;42.38;26.42;;;4.40;75.70;;;3.25;61.71;98219.47;4990912;28;20769;-77
2022/03/25 06:04:52;;;;;;;34.72;24.40;;;4.40;75.80;;;3.27;61.86;98225.31;4992721;28;20430;-76
2022/03/25 06:07:18;;;;;;;31.23;21.55;;;4.50;75.70;;;3.30;61.92;98230.19;4991599;28;20822;-76
2022/03/25 06:09:44;;;;;;;36.05;24.20;;;4.50;75.60;;;3.33;61.86;98235.03;4991510;28;20481;-77
2022/03/25 06:12:11;;;;;;;46.95;29.13;;;4.50;75.60;;;3.45;61.77;98229.16;4997022;28;20841;-76
2022/03/25 06:14:38;;;;;;;41.93;26.20;;;4.60;76.00;;;3.45;61.87;98241.44;5015127;28;20496;-76
2022/03/25 06:17:04;;;;;;;36.00;23.80;;;4.60;75.70;;;3.48;61.50;98230.59;5010758;28;20499;-77
2022/03/25 06:19:30;;;;;;;33.78;23.13;;;4.60;75.60;;;3.55;61.48;98241.13;5008919;28;20416;-79
2022/03/25 06:21:58;;;;;;;34.15;22.30;;;4.70;75.40;;;3.60;61.05;98239.59;5010784;28;20894;-77
2022/03/25 06:24:24;;;;;;;37.35;23.95;;;4.70;75.20;;;3.67;61.18;98240.47;5011716;28;20432;-76
2022/03/25 06:26:50;;;;;;;32.53;21.42;;;4.80;74.90;;;3.74;60.93;98243.97;5010973;28;20412;-77
2022/03/25 06:29:17;;;;;;;26.95;19.67;;;4.90;74.80;;;3.82;60.77;98248.28;5011479;28;20408;-77
2022/03/25 06:31:43;;;;;;;30.52;20.35;;;4.90;74.60;;;3.89;60.46;98246.53;5010539;28;20443;-76
2022/03/25 06:34:08;;;;;;;31.63;20.37;;;5.00;74.40;;;3.97;60.43;98250.81;5010903;28;20420;-77
2022/03/25 06:36:34;;;;;;;31.42;22.00;;;5.10;74.30;;;4.04;60.25;98252.50;5011025;28;20404;-76
2022/03/25 06:39:02;;;;;;;32.63;22.10;;;5.20;74.10;;;4.14;60.05;98260.84;5011101;28;20400;-77
2022/03/25 06:41:28;;;;;;;35.60;23.45;;;5.30;74.00;;;4.23;60.07;98254.47;5010845;28;20406;-76
2022/03/25 06:43:54;;;;;;;35.17;22.42;;;5.40;73.90;;;4.33;59.78;98258.59;5011277;28;20413;-77
2022/03/25 06:46:21;;;;;;;32.00;21.63;;;5.40;73.60;;;4.42;59.67;98260.88;5011244;28;20409;-76
2022/03/25 06:48:47;;;;;;;35.60;22.05;;;5.50;73.40;;;4.51;59.54;98257.09;5009763;28;20424;-77
2022/03/25 06:51:14;;;;;;;31.38;21.98;;;5.60;73.20;;;4.59;59.49;98262.19;5025831;28;20821;-77
2022/03/25 06:53:41;;;;;;;33.58;21.80;;;5.70;73.10;;;4.66;59.63;98260.44;5011209;28;20434;-77
2022/03/25 06:56:10;;;;;;;33.10;22.48;;;5.70;73.20;;;4.75;59.60;98266.34;5011193;28;20404;-77
2022/03/25 06:58:37;;;;;;;31.35;22.00;;;5.80;73.20;;;4.85;59.35;98268.63;5011049;28;20412;-77
2022/03/25 07:01:05;;;;;;;37.83;23.10;;;5.90;73.30;;;4.92;59.22;98270.28;5009300;28;20515;-77
2022/03/25 07:03:33;;;;;;;37.27;23.83;;;6.00;72.90;;;5.03;58.85;98269.75;5010885;28;20421;-78
2022/03/25 07:06:00;;;;;;;35.47;23.20;;;6.00;72.60;;;5.14;58.88;98275.44;5011043;28;20423;-77
2022/03/25 07:08:28;;;;;;;37.58;24.15;;;6.20;72.50;;;5.22;58.97;98273.47;5010883;28;20571;-77
2022/03/25 07:10:54;;;;;;;34.90;22.92;;;6.30;72.50;;;5.30;59.04;98277.75;5010732;28;20400;-78
2022/03/25 07:13:22;;;;;;;37.53;23.73;;;6.30;72.50;;;5.40;58.86;98280.81;5010885;28;20835;-77
2022/03/25 07:15:48;;;;;;;37.58;23.52;;;6.40;72.60;;;5.49;58.87;98282.25;5010160;28;20420;-74
2022/03/25 07:18:14;;;;;;;38.33;24.67;;;6.50;72.50;;;5.58;58.75;98278.44;5005881;28;20397;-74
2022/03/25 07:20:40;;;;;;;41.80;24.75;;;6.60;72.20;;;5.68;58.59;98278.91;5002261;28;20419;-76
2022/03/25 07:23:06;;;;;;;42.47;26.45;;;6.70;72.10;;;5.78;58.37;98291.66;5008928;28;20594;-78
2022/03/25 07:25:32;;;;;;;41.42;24.98;;;6.80;72.10;;;5.87;58.21;98289.63;5011021;28;20401;-77
2022/03/25 07:27:58;;;;;;;38.42;24.60;;;6.90;72.00;;;5.96;58.36;98291.13;5010724;28;20421;-77
2022/03/25 07:30:26;;;;;;;40.88;24.98;;;7.00;72.00;;;6.06;58.55;98289.72;5010725;28;20409;-77
2022/03/25 07:32:51;;;;;;;34.15;22.52;;;7.00;72.00;;;6.16;58.37;98294.59;5010050;28;20898;-76
2022/03/25 07:35:18;;;;;;;33.33;23.83;;;7.10;71.90;;;6.26;58.20;98297.63;5007801;28;20432;-76
2022/03/25 07:37:45;;;;;;;31.27;21.93;;;7.20;71.70;;;6.35;58.12;98293.78;5003598;28;20426;-77
2022/03/25 07:40:14;;;;;;;36.53;23.48;;;7.30;71.60;;;6.46;57.80;98300.28;5004857;28;20515;-76
2022/03/25 07:42:42;;;;;;;40.05;24.67;;;7.40;71.30;;;6.54;57.33;98289.56;5003783;28;20411;-76
2022/03/25 07:45:11;;;;;;;39.20;25.55;;;7.50;70.60;;;6.64;56.74;98289.94;5001699;28;20400;-76
2022/03/25 07:47:41;;;;;;;35.78;23.85;;;7.60;70.00;;;6.75;56.35;98299.06;5004553;28;20447;-77
2022/03/25 07:50:09;;;;;;;38.25;23.77;;;7.70;69.50;;;6.85;56.13;98294.97;5005213;28;20450;-77
2022/03/25 07:52:35;;;;;;;36.33;21.53;;;7.80;69.30;;;6.96;55.92;98296.19;5001517;28;20481;-77
2022/03/25 07:55:01;;;;;;;35.85;22.58;;;7.90;69.10;;;7.05;55.62;98294.16;5002884;28;20516;-77
2022/03/25 07:57:28;;;;;;;31.55;21.50;;;8.00;68.50;;;7.13;55.13;98300.00;5007547;28;20420;-77
2022/03/25 07:59:53;;;;;;;38.22;22.30;;;8.10;67.90;;;7.21;54.79;98296.34;5008057;28;20421;-76
2022/03/25 08:02:19;;;;;;;34.30;20.57;;;8.10;67.40;;;7.31;54.50;98302.78;5004657;28;20421;-76
2022/03/25 08:04:46;;;;;;;38.15;23.08;;;8.20;67.00;;;7.41;54.14;98306.81;5006595;28;20971;-76
2022/03/25 08:07:12;;;;;;;36.93;23.30;;;8.30;67.20;;;7.51;53.56;98312.44;5008180;28;20422;-76
2022/03/25 08:09:38;;;;;;;39.35;24.88;;;8.40;65.80;;;7.61;53.04;98308.34;5013844;28;20562;-76
2022/03/25 08:12:06;;;;;;;40.40;23.45;;;8.50;65.10;;;7.73;52.77;98314.59;5012711;28;20432;-77
2022/03/25 08:14:32;;;;;;;33.28;21.52;;;8.60;64.60;;;7.84;52.46;98307.03;5013852;28;20836;-76
2022/03/25 08:16:57;;;;;;;35.87;22.33;;;8.70;64.40;;;7.94;52.44;98305.56;5012502;28;20432;-77
2022/03/25 08:19:23;;;;;;;35.20;22.95;;;8.80;64.00;;;8.04;52.21;98313.00;5013358;28;20810;-76
2022/03/25 08:21:51;;;;;;;36.00;23.05;;;8.90;63.80;;;8.13;51.83;98309.88;5012048;28;20432;-76
2022/03/25 08:29:46;;;;;;;34.53;22.63;;;9.20;62.40;;;8.45;50.95;98310.72;5013835;28;20446;-74
2022/03/25 08:32:13;;;;;;;36.42;23.73;;;9.30;62.20;;;8.56;50.88;98314.50;5013487;28;21053;-77
2022/03/25 08:34:39;;;;;;;37.92;23.95;;;9.40;62.10;;;8.67;51.04;98311.16;5013886;28;20409;-75
2022/03/25 08:37:06;;;;;;;38.50;23.67;;;9.50;62.10;;;8.78;50.80;98315.75;5013533;28;20408;-76
2022/03/25 08:39:32;;;;;;;35.10;22.13;;;9.60;61.90;;;8.90;50.44;98318.47;5013600;28;20399;-78
2022/03/25 08:41:58;;;;;;;35.30;23.05;;;9.70;61.50;;;9.02;50.16;98310.66;5012250;28;20396;-78
2022/03/25 08:44:24;;;;;;;34.95;21.73;;;9.80;61.00;;;9.12;49.98;98311.75;5012166;28;20412;-78
2022/03/25 08:46:50;;;;;;;39.17;23.25;;;10.00;60.90;;;9.22;49.88;98311.25;5012630;28;20444;-77
2022/03/25 08:49:16;;;;;;;39.50;24.02;;;10.00;60.50;;;9.32;49.59;98311.56;5012209;28;20424;-77
2022/03/25 08:51:42;;;;;;;36.23;23.40;;;10.10;60.20;;;9.42;49.49;98305.75;5012416;28;20408;-78
2022/03/25 08:54:10;;;;;;;32.92;21.70;;;10.20;60.00;;;9.51;49.11;98310.53;5012561;28;20408;-77
2022/03/25 08:56:37;;;;;;;36.90;22.00;;;10.30;59.70;;;9.61;48.78;98313.47;5012753;28;20413;-78
2022/03/25 08:59:03;;;;;;;56.00;31.10;;;10.40;59.50;;;9.61;45.88;98302.06;5012376;28;20416;-77
2022/03/25 09:01:29;;;;;;;45.85;26.83;;;10.50;55.60;;;9.74;46.66;98298.44;5003412;28;20404;-77
2022/03/25 09:03:55;;;;;;;37.03;23.33;;;10.60;56.60;;;9.86;47.13;98305.41;5000025;28;20404;-77
2022/03/25 09:06:21;;;;;;;37.90;22.40;;;10.70;57.20;;;9.98;47.21;98308.91;5003982;28;20413;-78
2022/03/25 09:08:47;;;;;;;33.30;21.70;;;10.80;57.40;;;10.07;47.37;98312.06;5005293;28;20935;-76
2022/03/25 09:11:14;;;;;;;34.63;22.83;;;10.80;57.50;;;10.18;47.48;98310.50;5006576;28;20409;-77
2022/03/25 09:13:40;;;;;;;35.92;23.35;;;10.90;57.60;;;10.28;47.29;98316.06;5007320;28;20413;-84
2022/03/25 09:16:07;;;;;;;37.38;23.58;;;11.00;57.40;;;10.36;47.37;98315.72;5009343;28;20407;-79
2022/03/25 09:18:33;;;;;;;39.50;24.13;;;11.10;57.30;;;10.46;46.87;98313.31;5011128;28;20495;-78
2022/03/25 09:20:59;;;;;;;35.38;22.77;;;11.20;57.10;;;10.57;46.70;98309.09;5002549;28;20971;-81
2022/03/25 09:23:25;;;;;;;35.45;21.70;;;11.30;56.80;;;10.68;46.76;98306.44;5004420;28;20401;-76
2022/03/25 09:25:51;;;;;;;41.22;24.52;;;11.40;56.80;;;10.77;46.56;98304.28;5006684;28;20472;-77
2022/03/25 09:28:18;;;;;;;33.65;21.80;;;11.50;56.60;;;10.90;46.21;98313.84;5003222;28;20414;-77
2022/03/25 09:30:44;;;;;;;42.58;25.38;;;11.60;56.30;;;10.96;45.78;98313.75;5025700;23;20436;-85
2022/03/25 09:33:10;;;;;;;33.63;21.20;;;11.70;55.50;;;11.09;45.47;98313.50;5012798;28;20407;-80
2022/03/25 09:35:36;;;;;;;37.05;23.17;;;11.80;55.50;;;11.20;45.41;98307.38;5012508;28;20910;-79
2022/03/25 09:38:03;;;;;;;35.25;22.20;;;11.90;55.20;;;11.41;45.33;98310.47;5012630;28;20433;-73
2022/03/25 09:40:29;;;;;;;34.58;20.70;;;12.10;55.30;;;11.57;45.26;98312.41;5013126;28;20771;-74
2022/03/25 09:42:57;;;;;;;31.98;21.35;;;12.20;55.00;;;11.74;45.34;98309.78;5005395;28;20421;-78
2022/03/25 09:45:27;;;;;;;33.60;21.33;;;12.40;55.10;;;11.93;44.71;98314.75;5005567;28;20409;-78
2022/03/25 09:47:54;;;;;;;34.22;20.90;;;12.60;54.60;;;12.06;44.31;98308.31;5010713;28;20431;-76
2022/03/25 09:50:23;;;;;;;32.78;21.80;;;12.70;54.00;;;12.17;43.44;98315.44;5006304;28;20418;-75
2022/03/25 09:52:50;;;;;;;28.35;19.05;;;12.80;53.20;;;12.29;43.18;98313.53;5004395;28;20471;-74
2022/03/25 09:55:17;;;;;;;34.15;23.38;;;13.00;52.80;;;12.43;42.25;98310.56;4999081;28;20417;-74
2022/03/25 09:57:44;;;;;;;31.35;20.10;;;13.00;51.70;;;12.55;41.51;98311.31;5008306;28;20419;-74
2022/03/25 10:00:16;;;;;;;34.15;22.00;;;13.20;51.20;;;12.68;41.36;98303.81;5011472;28;20511;-74
2022/03/25 10:02:43;;;;;;;33.58;21.33;;;13.30;50.60;;;12.77;40.13;98306.88;5012226;28;20408;-74
2022/03/25 10:05:17;;;;;;;34.47;22.70;;;13.40;49.10;;;12.96;40.07;98305.56;5013913;28;20501;-76
2022/03/25 10:07:46;;;;;;;34.53;21.58;;;13.60;49.10;;;13.23;39.55;98308.38;5015305;28;20425;-77
2022/03/25 10:10:17;;;;;;;32.58;21.40;;;13.80;48.80;;;13.70;38.97;98308.72;5007925;28;20419;-74
2022/03/25 10:12:45;;;;;;;32.65;21.25;;;14.20;48.20;;;14.49;37.88;98310.91;5007542;28;20778;-74
2022/03/25 10:15:23;;;;;;;41.70;25.05;;;15.00;46.90;;;15.60;35.72;98305.50;5011059;28;20400;-75
2022/03/25 10:17:56;;;;;;;34.20;22.38;;;16.20;44.80;;;17.04;33.81;98301.72;5004744;28;20409;-73
2022/03/25 10:20:26;;;;;;;26.83;18.50;;;17.70;42.00;;;18.29;32.34;98308.75;5005303;28;20475;-75